sensor_id;sensor_type;location;lat;lon;timestamp;pressure;altitude;pressure_sealevel;temperature;humidity
55289;BME280;41154;45.394;5.734;2023-04-30T00:00:21;96804.84;;;11.79;100.00
55289;BME280;41154;45.394;5.734;2023-04-30T00:02:51;96802.66;;;11.66;100.00
55289;BME280;41154;45.394;5.734;2023-04-30T00:05:17;96793.41;;;11.46;100.00
55289;BME280;41154;45.394;5.734;2023-04-30T00:07:43;96794.28;;;11.62;100.00
55289;BME280;41154;45.394;5.734;2023-04-30T00:10:09;96795.19;;;11.78;100.00
55289;BME280;41154;45.394;5.734;2023-04-30T00:12:35;96796.69;;;11.59;100.00
55289;BME280;41154;45.394;5.734;2023-04-30T00:15:01;96794.03;;;11.64;100.00
55289;BME280;41154;45.394;5.734;2023-04-30T00:17:27;96793.97;;;11.48;100.00
55289;BME280;41154;45.394;5.734;2023-04-30T00:19:53;96784.88;;;11.60;100.00
55289;BME280;41154;45.394;5.734;2023-04-30T00:22:19;96786.22;;;11.62;100.00
55289;BME280;41154;45.394;5.734;2023-04-30T00:24:44;96785.97;;;11.64;100.00
55289;BME280;41154;45.394;5.734;2023-04-30T00:27:10;96793.38;;;11.36;100.00
55289;BME280;41154;45.394;5.734;2023-04-30T00:29:36;96781.44;;;11.17;100.00
55289;BME280;41154;45.394;5.734;2023-04-30T00:32:02;96779.59;;;11.22;100.00
55289;BME280;41154;45.394;5.734;2023-04-30T00:34:28;96790.03;;;11.19;100.00
55289;BME280;41154;45.394;5.734;2023-04-30T00:36:54;96781.25;;;11.28;100.00
55289;BME280;41154;45.394;5.734;2023-04-30T00:39:20;96779.63;;;11.32;100.00
55289;BME280;41154;45.394;5.734;2023-04-30T00:41:46;96786.09;;;11.31;100.00
55289;BME280;41154;45.394;5.734;2023-04-30T00:44:12;96782.28;;;11.22;100.00
55289;BME280;41154;45.394;5.734;2023-04-30T00:46:37;96781.59;;;11.42;100.00
55289;BME280;41154;45.394;5.734;2023-04-30T00:49:03;96778.56;;;11.33;100.00
55289;BME280;41154;45.394;5.734;2023-04-30T00:51:32;96777.81;;;11.43;100.00
55289;BME280;41154;45.394;5.734;2023-04-30T00:54:00;96778.47;;;11.66;100.00
55289;BME280;41154;45.394;5.734;2023-04-30T00:56:30;96777.75;;;11.91;100.00
55289;BME280;41154;45.394;5.734;2023-04-30T00:58:56;96773.00;;;12.14;100.00
55289;BME280;41154;45.394;5.734;2023-04-30T01:01:26;96774.34;;;12.16;100.00
55289;BME280;41154;45.394;5.734;2023-04-30T01:03:55;96781.88;;;12.14;100.00
55289;BME280;41154;45.394;5.734;2023-04-30T01:06:21;96782.41;;;12.16;100.00
55289;BME280;41154;45.394;5.734;2023-04-30T01:08:47;96779.47;;;12.13;100.00
55289;BME280;41154;45.394;5.734;2023-04-30T01:11:33;96783.50;;;12.26;100.00
55289;BME280;41154;45.394;5.734;2023-04-30T01:14:09;96777.88;;;12.32;100.00
55289;BME280;41154;45.394;5.734;2023-04-30T01:16:47;96779.00;;;12.47;100.00
55289;BME280;41154;45.394;5.734;2023-04-30T01:19:42;96779.00;;;12.47;100.00
55289;BME280;41154;45.394;5.734;2023-04-30T01:22:13;96783.28;;;12.68;100.00
55289;BME280;41154;45.394;5.734;2023-04-30T01:28:16;96781.97;;;12.61;100.00
55289;BME280;41154;45.394;5.734;2023-04-30T01:30:19;96776.56;;;12.76;100.00
55289;BME280;41154;45.394;5.734;2023-04-30T01:32:45;96786.00;;;12.73;100.00
55289;BME280;41154;45.394;5.734;2023-04-30T01:35:11;96790.03;;;12.86;100.00
55289;BME280;41154;45.394;5.734;2023-04-30T01:48:05;96786.22;;;12.46;100.00
55289;BME280;41154;45.394;5.734;2023-04-30T01:50:37;96791.09;;;12.44;100.00
55289;BME280;41154;45.394;5.734;2023-04-30T01:53:19;96792.13;;;12.28;100.00
55289;BME280;41154;45.394;5.734;2023-04-30T01:55:50;96795.41;;;12.45;100.00
55289;BME280;41154;45.394;5.734;2023-04-30T01:58:21;96792.16;;;12.33;100.00
55289;BME280;41154;45.394;5.734;2023-04-30T02:00:48;96801.31;;;12.47;100.00
55289;BME280;41154;45.394;5.734;2023-04-30T02:03:13;96799.72;;;12.56;100.00
55289;BME280;41154;45.394;5.734;2023-04-30T02:05:40;96793.78;;;12.39;100.00
55289;BME280;41154;45.394;5.734;2023-04-30T02:08:06;96799.69;;;12.46;100.00
55289;BME280;41154;45.394;5.734;2023-04-30T02:10:32;96802.41;;;12.51;100.00
55289;BME280;41154;45.394;5.734;2023-04-30T02:12:58;96799.16;;;12.49;100.00
55289;BME280;41154;45.394;5.734;2023-04-30T02:15:25;96794.84;;;12.33;100.00
55289;BME280;41154;45.394;5.734;2023-04-30T02:17:52;96799.16;;;12.44;100.00
55289;BME280;41154;45.394;5.734;2023-04-30T02:20:18;96794.84;;;12.43;100.00
55289;BME280;41154;45.394;5.734;2023-04-30T02:22:44;96795.13;;;12.52;100.00
55289;BME280;41154;45.394;5.734;2023-04-30T02:25:10;96792.16;;;12.43;100.00
55289;BME280;41154;45.394;5.734;2023-04-30T02:27:37;96799.66;;;12.20;100.00
55289;BME280;41154;45.394;5.734;2023-04-30T02:30:03;96796.44;;;12.29;100.00
55289;BME280;41154;45.394;5.734;2023-04-30T02:32:29;96802.28;;;12.05;100.00
55289;BME280;41154;45.394;5.734;2023-04-30T02:34:55;96787.78;;;12.06;100.00
55289;BME280;41154;45.394;5.734;2023-04-30T02:37:21;96797.44;;;12.07;100.00
55289;BME280;41154;45.394;5.734;2023-04-30T02:39:48;96787.31;;;12.30;100.00
55289;BME280;41154;45.394;5.734;2023-04-30T02:42:14;96794.00;;;12.32;100.00
55289;BME280;41154;45.394;5.734;2023-04-30T02:44:39;96791.59;;;12.20;100.00
55289;BME280;41154;45.394;5.734;2023-04-30T02:47:05;96787.00;;;12.26;100.00
55289;BME280;41154;45.394;5.734;2023-04-30T02:49:31;96796.16;;;12.25;100.00
55289;BME280;41154;45.394;5.734;2023-04-30T02:51:57;96794.84;;;12.33;100.00
55289;BME280;41154;45.394;5.734;2023-04-30T02:54:23;96799.13;;;12.29;100.00
55289;BME280;41154;45.394;5.734;2023-04-30T02:56:49;96806.66;;;12.27;100.00
55289;BME280;41154;45.394;5.734;2023-04-30T02:59:14;96801.50;;;12.20;100.00
55289;BME280;41154;45.394;5.734;2023-04-30T03:01:40;96802.56;;;12.03;100.00
55289;BME280;41154;45.394;5.734;2023-04-30T03:04:06;96806.34;;;12.13;100.00
55289;BME280;41154;45.394;5.734;2023-04-30T03:06:32;96809.31;;;12.11;100.00
55289;BME280;41154;45.394;5.734;2023-04-30T03:08:58;96815.72;;;12.05;100.00
55289;BME280;41154;45.394;5.734;2023-04-30T03:11:25;96809.03;;;12.13;100.00
55289;BME280;41154;45.394;5.734;2023-04-30T03:13:52;96808.78;;;12.09;100.00
55289;BME280;41154;45.394;5.734;2023-04-30T03:16:19;96812.78;;;12.07;100.00
55289;BME280;41154;45.394;5.734;2023-04-30T03:18:46;96810.31;;;11.95;100.00
55289;BME280;41154;45.394;5.734;2023-04-30T03:21:13;96812.25;;;12.10;100.00
55289;BME280;41154;45.394;5.734;2023-04-30T03:23:38;96810.88;;;11.97;100.00
55289;BME280;41154;45.394;5.734;2023-04-30T03:26:04;96812.22;;;11.99;100.00
55289;BME280;41154;45.394;5.734;2023-04-30T03:28:30;96808.19;;;11.97;100.00
55289;BME280;41154;45.394;5.734;2023-04-30T03:30:56;96814.88;;;11.94;100.00
55289;BME280;41154;45.394;5.734;2023-04-30T03:33:23;96814.34;;;11.92;100.00
55289;BME280;41154;45.394;5.734;2023-04-30T03:35:49;96813.47;;;11.86;100.00
55289;BME280;41154;45.394;5.734;2023-04-30T03:38:16;96814.44;;;11.60;100.00
55289;BME280;41154;45.394;5.734;2023-04-30T03:40:42;96813.16;;;11.73;100.00
55289;BME280;41154;45.394;5.734;2023-04-30T03:43:08;96817.22;;;11.85;100.00
55289;BME280;41154;45.394;5.734;2023-04-30T03:45:33;96823.06;;;11.67;100.00
55289;BME280;41154;45.394;5.734;2023-04-30T03:48:02;96814.81;;;11.84;100.00
55289;BME280;41154;45.394;5.734;2023-04-30T03:50:28;96808.34;;;11.80;100.00
55289;BME280;41154;45.394;5.734;2023-04-30T03:52:55;96811.75;;;11.60;100.00
55289;BME280;41154;45.394;5.734;2023-04-30T03:55:20;96816.53;;;11.52;100.00
55289;BME280;41154;45.394;5.734;2023-04-30T03:57:46;96820.38;;;11.67;100.00
55289;BME280;41154;45.394;5.734;2023-04-30T04:00:12;96819.84;;;11.70;100.00
55289;BME280;41154;45.394;5.734;2023-04-30T04:02:46;96818.19;;;11.59;100.00
55289;BME280;41154;45.394;5.734;2023-04-30T04:05:12;96829.72;;;11.59;100.00
55289;BME280;41154;45.394;5.734;2023-04-30T04:07:38;96824.06;;;11.50;100.00
55289;BME280;41154;45.394;5.734;2023-04-30T04:10:04;96823.47;;;11.43;100.00
55289;BME280;41154;45.394;5.734;2023-04-30T04:12:31;96833.16;;;11.44;100.00
55289;BME280;41154;45.394;5.734;2023-04-30T04:14:56;96834.13;;;11.28;100.00
55289;BME280;41154;45.394;5.734;2023-04-30T04:17:23;96829.34;;;11.35;100.00
55289;BME280;41154;45.394;5.734;2023-04-30T04:19:49;96834.19;;;11.38;100.00
55289;BME280;41154;45.394;5.734;2023-04-30T04:22:16;96837.38;;;11.30;100.00
55289;BME280;41154;45.394;5.734;2023-04-30T04:24:43;96841.84;;;11.19;100.00
55289;BME280;41154;45.394;5.734;2023-04-30T04:27:14;96834.59;;;11.20;100.00
55289;BME280;41154;45.394;5.734;2023-04-30T04:29:41;96830.00;;;11.15;100.00
55289;BME280;41154;45.394;5.734;2023-04-30T04:32:07;96840.50;;;11.17;100.00
55289;BME280;41154;45.394;5.734;2023-04-30T04:34:36;96830.03;;;11.20;100.00
55289;BME280;41154;45.394;5.734;2023-04-30T04:37:03;96838.31;;;11.13;100.00
55289;BME280;41154;45.394;5.734;2023-04-30T04:39:28;96834.84;;;11.13;100.00
55289;BME280;41154;45.394;5.734;2023-04-30T04:41:54;96838.53;;;11.07;100.00
55289;BME280;41154;45.394;5.734;2023-04-30T04:44:20;96832.41;;;11.11;100.00
55289;BME280;41154;45.394;5.734;2023-04-30T04:46:46;96834.75;;;11.03;100.00
55289;BME280;41154;45.394;5.734;2023-04-30T04:49:12;96837.66;;;10.96;100.00
55289;BME280;41154;45.394;5.734;2023-04-30T04:51:38;96836.84;;;10.95;100.00
55289;BME280;41154;45.394;5.734;2023-04-30T04:54:04;96848.41;;;11.01;100.00
55289;BME280;41154;45.394;5.734;2023-04-30T04:56:31;96852.97;;;10.95;100.00
55289;BME280;41154;45.394;5.734;2023-04-30T04:58:58;96851.63;;;10.98;100.00
55289;BME280;41154;45.394;5.734;2023-04-30T05:01:23;96854.75;;;10.57;100.00
55289;BME280;41154;45.394;5.734;2023-04-30T05:03:49;96861.44;;;10.87;100.00
55289;BME280;41154;45.394;5.734;2023-04-30T05:06:17;96860.94;;;10.90;100.00
55289;BME280;41154;45.394;5.734;2023-04-30T05:08:43;96861.25;;;10.94;100.00
55289;BME280;41154;45.394;5.734;2023-04-30T05:11:09;96857.94;;;10.82;100.00
55289;BME280;41154;45.394;5.734;2023-04-30T05:13:35;96859.28;;;10.84;100.00
55289;BME280;41154;45.394;5.734;2023-04-30T05:16:01;96860.41;;;10.88;100.00
55289;BME280;41154;45.394;5.734;2023-04-30T05:18:27;96859.97;;;10.69;100.00
55289;BME280;41154;45.394;5.734;2023-04-30T05:20:53;96856.31;;;10.81;100.00
55289;BME280;41154;45.394;5.734;2023-04-30T05:23:19;96855.31;;;10.92;100.00
55289;BME280;41154;45.394;5.734;2023-04-30T05:25:44;96860.00;;;10.74;100.00
55289;BME280;41154;45.394;5.734;2023-04-30T05:28:11;96846.63;;;10.47;100.00
55289;BME280;41154;45.394;5.734;2023-04-30T05:30:37;96859.53;;;10.83;100.00
55289;BME280;41154;45.394;5.734;2023-04-30T05:33:02;96854.59;;;10.69;100.00
55289;BME280;41154;45.394;5.734;2023-04-30T05:35:28;96858.00;;;10.92;100.00
55289;BME280;41154;45.394;5.734;2023-04-30T05:37:55;96855.50;;;10.80;100.00
55289;BME280;41154;45.394;5.734;2023-04-30T05:40:21;96851.72;;;11.08;100.00
55289;BME280;41154;45.394;5.734;2023-04-30T05:42:47;96846.84;;;11.05;100.00
55289;BME280;41154;45.394;5.734;2023-04-30T05:45:12;96836.09;;;11.00;100.00
55289;BME280;41154;45.394;5.734;2023-04-30T05:47:41;96850.63;;;11.09;100.00
55289;BME280;41154;45.394;5.734;2023-04-30T05:50:08;96846.09;;;11.10;100.00
55289;BME280;41154;45.394;5.734;2023-04-30T05:52:34;96841.38;;;10.95;100.00
55289;BME280;41154;45.394;5.734;2023-04-30T05:55:00;96846.09;;;10.77;100.00
55289;BME280;41154;45.394;5.734;2023-04-30T05:57:25;96846.63;;;11.12;100.00
55289;BME280;41154;45.394;5.734;2023-04-30T05:59:51;96849.66;;;10.88;100.00
55289;BME280;41154;45.394;5.734;2023-04-30T06:02:17;96849.44;;;11.27;100.00
55289;BME280;41154;45.394;5.734;2023-04-30T06:04:43;96836.34;;;11.41;100.00
55289;BME280;41154;45.394;5.734;2023-04-30T06:07:09;96839.63;;;11.48;100.00
55289;BME280;41154;45.394;5.734;2023-04-30T06:09:35;96833.91;;;11.35;100.00
55289;BME280;41154;45.394;5.734;2023-04-30T06:12:00;96833.69;;;11.46;100.00
55289;BME280;41154;45.394;5.734;2023-04-30T06:14:27;96827.69;;;11.29;100.00
55289;BME280;41154;45.394;5.734;2023-04-30T06:16:53;96834.03;;;11.60;100.00
55289;BME280;41154;45.394;5.734;2023-04-30T06:19:18;96836.81;;;11.81;100.00
55289;BME280;41154;45.394;5.734;2023-04-30T06:21:45;96839.00;;;11.84;100.00
55289;BME280;41154;45.394;5.734;2023-04-30T06:24:11;96841.41;;;11.80;100.00
55289;BME280;41154;45.394;5.734;2023-04-30T06:26:36;96843.72;;;11.56;100.00
55289;BME280;41154;45.394;5.734;2023-04-30T06:29:05;96851.47;;;12.00;100.00
55289;BME280;41154;45.394;5.734;2023-04-30T06:31:31;96844.34;;;12.47;100.00
55289;BME280;41154;45.394;5.734;2023-04-30T06:33:58;96857.16;;;12.14;100.00
55289;BME280;41154;45.394;5.734;2023-04-30T06:36:23;96854.22;;;11.63;100.00
55289;BME280;41154;45.394;5.734;2023-04-30T06:38:49;96858.09;;;11.40;100.00
55289;BME280;41154;45.394;5.734;2023-04-30T06:41:18;96858.47;;;11.54;100.00
55289;BME280;41154;45.394;5.734;2023-04-30T06:43:47;96861.97;;;12.07;100.00
55289;BME280;41154;45.394;5.734;2023-04-30T06:46:12;96861.47;;;12.15;100.00
55289;BME280;41154;45.394;5.734;2023-04-30T06:48:39;96861.44;;;12.10;100.00
55289;BME280;41154;45.394;5.734;2023-04-30T06:51:05;96867.25;;;11.92;100.00
55289;BME280;41154;45.394;5.734;2023-04-30T06:53:30;96863.63;;;12.13;100.00
55289;BME280;41154;45.394;5.734;2023-04-30T06:55:56;96866.56;;;12.07;100.00
55289;BME280;41154;45.394;5.734;2023-04-30T06:58:22;96864.22;;;11.73;100.00
55289;BME280;41154;45.394;5.734;2023-04-30T07:00:48;96873.97;;;11.89;100.00
55289;BME280;41154;45.394;5.734;2023-04-30T07:03:14;96868.34;;;11.91;100.00
55289;BME280;41154;45.394;5.734;2023-04-30T07:05:40;96867.25;;;11.92;100.00
55289;BME280;41154;45.394;5.734;2023-04-30T07:08:06;96871.59;;;11.93;100.00
55289;BME280;41154;45.394;5.734;2023-04-30T07:10:32;96868.66;;;11.94;100.00
55289;BME280;41154;45.394;5.734;2023-04-30T07:12:58;96873.78;;;12.01;100.00
55289;BME280;41154;45.394;5.734;2023-04-30T07:15:23;96878.00;;;11.92;100.00
55289;BME280;41154;45.394;5.734;2023-04-30T07:17:49;96878.78;;;11.87;100.00
55289;BME280;41154;45.394;5.734;2023-04-30T07:20:15;96878.06;;;11.97;100.00
55289;BME280;41154;45.394;5.734;2023-04-30T07:22:41;96884.91;;;11.77;100.00
55289;BME280;41154;45.394;5.734;2023-04-30T07:25:15;96882.16;;;11.67;100.00
55289;BME280;41154;45.394;5.734;2023-04-30T07:27:40;96886.34;;;11.47;100.00
55289;BME280;41154;45.394;5.734;2023-04-30T07:30:09;96888.09;;;11.69;100.00
55289;BME280;41154;45.394;5.734;2023-04-30T07:32:36;96889.47;;;11.34;100.00
55289;BME280;41154;45.394;5.734;2023-04-30T07:35:03;96897.22;;;11.68;100.00
55289;BME280;41154;45.394;5.734;2023-04-30T07:37:29;96899.88;;;11.58;100.00
55289;BME280;41154;45.394;5.734;2023-04-30T07:39:55;96900.00;;;11.83;100.00
55289;BME280;41154;45.394;5.734;2023-04-30T07:42:21;96902.44;;;11.85;100.00
55289;BME280;41154;45.394;5.734;2023-04-30T07:44:47;96904.88;;;11.92;100.00
55289;BME280;41154;45.394;5.734;2023-04-30T07:47:13;96905.41;;;11.88;100.00
55289;BME280;41154;45.394;5.734;2023-04-30T07:49:39;96909.47;;;11.48;100.00
55289;BME280;41154;45.394;5.734;2023-04-30T07:52:05;96913.50;;;11.51;100.00
55289;BME280;41154;45.394;5.734;2023-04-30T07:54:35;96910.13;;;11.66;100.00
55289;BME280;41154;45.394;5.734;2023-04-30T07:57:03;96913.88;;;11.65;100.00
55289;BME280;41154;45.394;5.734;2023-04-30T07:59:30;96921.63;;;11.56;100.00
55289;BME280;41154;45.394;5.734;2023-04-30T08:01:56;96919.53;;;11.68;100.00
55289;BME280;41154;45.394;5.734;2023-04-30T08:04:22;96921.44;;;11.73;100.00
55289;BME280;41154;45.394;5.734;2023-04-30T08:06:48;96920.59;;;11.67;100.00
55289;BME280;41154;45.394;5.734;2023-04-30T08:09:13;96923.75;;;11.59;100.00
55289;BME280;41154;45.394;5.734;2023-04-30T08:11:40;96926.44;;;11.59;100.00
55289;BME280;41154;45.394;5.734;2023-04-30T08:14:06;96919.75;;;11.62;100.00
55289;BME280;41154;45.394;5.734;2023-04-30T08:16:50;96925.06;;;11.51;100.00
55289;BME280;41154;45.394;5.734;2023-04-30T08:19:16;96924.25;;;11.51;100.00
55289;BME280;41154;45.394;5.734;2023-04-30T08:21:41;96925.94;;;11.62;100.00
55289;BME280;41154;45.394;5.734;2023-04-30T08:24:07;96936.69;;;11.62;100.00
55289;BME280;41154;45.394;5.734;2023-04-30T08:26:33;96931.09;;;11.31;100.00
55289;BME280;41154;45.394;5.734;2023-04-30T08:28:58;96933.66;;;11.48;100.00
55289;BME280;41154;45.394;5.734;2023-04-30T08:31:24;96940.25;;;11.36;100.00
55289;BME280;41154;45.394;5.734;2023-04-30T08:33:50;96943.38;;;11.55;100.00
55289;BME280;41154;45.394;5.734;2023-04-30T08:36:16;96942.34;;;11.66;100.00
55289;BME280;41154;45.394;5.734;2023-04-30T08:38:41;96947.66;;;11.56;100.00
55289;BME280;41154;45.394;5.734;2023-04-30T08:43:33;96956.03;;;11.27;100.00
55289;BME280;41154;45.394;5.734;2023-04-30T08:46:00;96958.34;;;11.18;100.00
55289;BME280;41154;45.394;5.734;2023-04-30T08:48:28;96963.09;;;11.38;100.00
55289;BME280;41154;45.394;5.734;2023-04-30T08:50:54;96967.13;;;11.08;100.00
55289;BME280;41154;45.394;5.734;2023-04-30T08:53:20;96966.56;;;11.06;100.00
55289;BME280;41154;45.394;5.734;2023-04-30T08:55:47;96963.38;;;11.09;100.00
55289;BME280;41154;45.394;5.734;2023-04-30T08:58:13;96973.75;;;11.28;100.00
55289;BME280;41154;45.394;5.734;2023-04-30T09:00:39;96966.63;;;11.11;100.00
55289;BME280;41154;45.394;5.734;2023-04-30T09:03:06;96970.03;;;11.34;100.00
55289;BME280;41154;45.394;5.734;2023-04-30T09:05:32;96976.78;;;11.09;100.00
55289;BME280;41154;45.394;5.734;2023-04-30T09:07:58;96981.94;;;11.43;100.00
55289;BME280;41154;45.394;5.734;2023-04-30T09:10:24;96973.97;;;11.21;100.00
55289;BME280;41154;45.394;5.734;2023-04-30T09:13:07;96976.63;;;11.48;100.00
55289;BME280;41154;45.394;5.734;2023-04-30T09:15:35;96971.19;;;11.43;100.00
55289;BME280;41154;45.394;5.734;2023-04-30T09:18:11;96980.63;;;11.46;100.00
55289;BME280;41154;45.394;5.734;2023-04-30T09:20:38;96980.22;;;11.32;100.00
55289;BME280;41154;45.394;5.734;2023-04-30T09:23:17;96974.94;;;11.10;100.00
55289;BME280;41154;45.394;5.734;2023-04-30T09:25:43;96973.84;;;11.38;100.00
55289;BME280;41154;45.394;5.734;2023-04-30T09:28:10;96976.78;;;11.69;100.00
55289;BME280;41154;45.394;5.734;2023-04-30T09:30:36;96970.69;;;11.84;100.00
55289;BME280;41154;45.394;5.734;2023-04-30T09:33:02;96981.41;;;11.46;100.00
55289;BME280;41154;45.394;5.734;2023-04-30T09:35:35;96968.00;;;11.84;100.00
55289;BME280;41154;45.394;5.734;2023-04-30T09:38:02;96972.53;;;12.16;100.00
55289;BME280;41154;45.394;5.734;2023-04-30T09:40:35;96981.16;;;11.80;100.00
55289;BME280;41154;45.394;5.734;2023-04-30T09:43:02;96980.59;;;12.16;100.00
55289;BME280;41154;45.394;5.734;2023-04-30T09:45:44;96974.97;;;12.22;100.00
55289;BME280;41154;45.394;5.734;2023-04-30T09:48:14;96979.56;;;12.22;100.00
55289;BME280;41154;45.394;5.734;2023-04-30T09:50:41;96984.09;;;12.16;100.00
55289;BME280;41154;45.394;5.734;2023-04-30T09:53:08;96987.31;;;12.18;100.00
55289;BME280;41154;45.394;5.734;2023-04-30T09:55:35;96988.44;;;12.22;100.00
55289;BME280;41154;45.394;5.734;2023-04-30T09:58:09;96985.75;;;12.22;100.00
55289;BME280;41154;45.394;5.734;2023-04-30T10:00:35;96983.22;;;12.58;100.00
55289;BME280;41154;45.394;5.734;2023-04-30T10:03:06;96981.31;;;12.54;100.00
55289;BME280;41154;45.394;5.734;2023-04-30T10:05:38;96994.56;;;12.76;100.00
55289;BME280;41154;45.394;5.734;2023-04-30T10:08:17;96987.69;;;13.06;100.00
55289;BME280;41154;45.394;5.734;2023-04-30T10:10:46;96989.50;;;12.90;100.00
55289;BME280;41154;45.394;5.734;2023-04-30T10:13:17;96992.50;;;12.99;100.00
55289;BME280;41154;45.394;5.734;2023-04-30T10:15:49;96986.47;;;12.08;100.00
55289;BME280;41154;45.394;5.734;2023-04-30T10:18:28;96989.69;;;12.10;100.00
55289;BME280;41154;45.394;5.734;2023-04-30T10:20:56;96987.31;;;12.76;100.00
55289;BME280;41154;45.394;5.734;2023-04-30T10:23:24;96979.34;;;12.34;100.00
55289;BME280;41154;45.394;5.734;2023-04-30T10:25:50;96989.69;;;12.68;100.00
55289;BME280;41154;45.394;5.734;2023-04-30T10:28:15;96985.44;;;12.72;100.00
55289;BME280;41154;45.394;5.734;2023-04-30T10:30:41;96990.53;;;12.73;100.00
55289;BME280;41154;45.394;5.734;2023-04-30T10:33:31;96993.09;;;12.37;100.00
55289;BME280;41154;45.394;5.734;2023-04-30T10:36:02;96982.66;;;12.51;100.00
55289;BME280;41154;45.394;5.734;2023-04-30T10:38:29;96981.53;;;12.42;100.00
55289;BME280;41154;45.394;5.734;2023-04-30T10:40:58;96985.13;;;12.10;100.00
55289;BME280;41154;45.394;5.734;2023-04-30T10:43:26;96994.53;;;12.61;100.00
55289;BME280;41154;45.394;5.734;2023-04-30T10:45:56;96986.41;;;12.45;100.00
55289;BME280;41154;45.394;5.734;2023-04-30T10:48:22;96990.22;;;12.65;100.00
55289;BME280;41154;45.394;5.734;2023-04-30T10:50:56;96989.00;;;12.30;100.00
55289;BME280;41154;45.394;5.734;2023-04-30T10:53:22;96981.03;;;12.55;100.00
55289;BME280;41154;45.394;5.734;2023-04-30T10:56:03;96984.03;;;12.06;100.00
55289;BME280;41154;45.394;5.734;2023-04-30T10:58:38;96986.78;;;12.21;100.00
55289;BME280;41154;45.394;5.734;2023-04-30T11:01:10;96985.63;;;12.02;100.00
55289;BME280;41154;45.394;5.734;2023-04-30T11:03:37;96973.84;;;12.13;100.00
55289;BME280;41154;45.394;5.734;2023-04-30T11:06:22;96979.75;;;12.10;100.00
55289;BME280;41154;45.394;5.734;2023-04-30T11:08:51;96974.22;;;11.90;100.00
55289;BME280;41154;45.394;5.734;2023-04-30T11:11:18;96978.44;;;12.13;100.00
55289;BME280;41154;45.394;5.734;2023-04-30T11:13:59;96973.41;;;12.27;100.00
55289;BME280;41154;45.394;5.734;2023-04-30T11:16:34;96984.84;;;12.07;100.00
55289;BME280;41154;45.394;5.734;2023-04-30T11:19:09;96983.34;;;11.88;100.00
55289;BME280;41154;45.394;5.734;2023-04-30T11:21:40;96984.09;;;12.16;100.00
55289;BME280;41154;45.394;5.734;2023-04-30T11:24:05;96981.81;;;11.93;100.00
55289;BME280;41154;45.394;5.734;2023-04-30T11:27:05;96988.19;;;11.86;100.00
55289;BME280;41154;45.394;5.734;2023-04-30T11:29:32;96986.84;;;12.27;100.00
55289;BME280;41154;45.394;5.734;2023-04-30T11:32:03;96990.31;;;11.84;100.00
55289;BME280;41154;45.394;5.734;2023-04-30T11:34:29;96988.53;;;11.95;100.00
55289;BME280;41154;45.394;5.734;2023-04-30T11:36:58;96995.69;;;11.84;100.00
55289;BME280;41154;45.394;5.734;2023-04-30T11:39:25;96994.56;;;11.75;100.00
55289;BME280;41154;45.394;5.734;2023-04-30T11:41:53;96996.38;;;11.37;100.00
55289;BME280;41154;45.394;5.734;2023-04-30T11:44:26;96986.50;;;11.43;100.00
55289;BME280;41154;45.394;5.734;2023-04-30T11:46:52;96984.91;;;11.14;100.00
55289;BME280;41154;45.394;5.734;2023-04-30T11:49:21;96980.75;;;11.29;100.00
55289;BME280;41154;45.394;5.734;2023-04-30T11:51:48;96985.97;;;11.41;100.00
55289;BME280;41154;45.394;5.734;2023-04-30T11:54:14;96987.31;;;11.81;100.00
55289;BME280;41154;45.394;5.734;2023-04-30T11:56:45;96988.94;;;11.77;100.00
55289;BME280;41154;45.394;5.734;2023-04-30T11:59:13;96993.53;;;11.81;100.00
55289;BME280;41154;45.394;5.734;2023-04-30T12:01:40;96991.66;;;11.49;100.00
55289;BME280;41154;45.394;5.734;2023-04-30T12:04:06;96993.94;;;11.63;100.00
55289;BME280;41154;45.394;5.734;2023-04-30T12:06:33;96989.84;;;11.28;100.00
55289;BME280;41154;45.394;5.734;2023-04-30T12:09:01;96992.84;;;11.64;100.00
55289;BME280;41154;45.394;5.734;2023-04-30T12:11:34;96995.84;;;11.35;100.00
55289;BME280;41154;45.394;5.734;2023-04-30T12:14:08;96990.22;;;11.37;100.00
55289;BME280;41154;45.394;5.734;2023-04-30T12:16:45;96994.56;;;11.75;100.00
55289;BME280;41154;45.394;5.734;2023-04-30T12:19:22;97001.50;;;11.71;100.00
55289;BME280;41154;45.394;5.734;2023-04-30T12:21:49;96987.78;;;11.35;100.00
55289;BME280;41154;45.394;5.734;2023-04-30T12:24:17;96996.84;;;11.29;100.00
55289;BME280;41154;45.394;5.734;2023-04-30T12:26:43;97000.91;;;11.31;100.00
55289;BME280;41154;45.394;5.734;2023-04-30T12:29:14;97004.25;;;11.17;100.00
55289;BME280;41154;45.394;5.734;2023-04-30T12:31:40;96997.56;;;11.19;100.00
55289;BME280;41154;45.394;5.734;2023-04-30T12:34:09;96996.22;;;11.22;100.00
55289;BME280;41154;45.394;5.734;2023-04-30T12:36:38;97003.31;;;11.65;100.00
55289;BME280;41154;45.394;5.734;2023-04-30T12:39:07;97001.16;;;11.30;100.00
55289;BME280;41154;45.394;5.734;2023-04-30T12:41:41;96997.00;;;11.44;100.00
55289;BME280;41154;45.394;5.734;2023-04-30T12:44:18;96998.22;;;11.31;100.00
55289;BME280;41154;45.394;5.734;2023-04-30T12:46:45;96992.88;;;12.01;100.00
55289;BME280;41154;45.394;5.734;2023-04-30T12:55:39;96994.03;;;12.16;100.00
55289;BME280;41154;45.394;5.734;2023-04-30T12:58:09;96999.72;;;12.25;100.00
55289;BME280;41154;45.394;5.734;2023-04-30T13:00:47;96995.44;;;11.86;100.00
55289;BME280;41154;45.394;5.734;2023-04-30T13:03:14;97003.44;;;12.13;100.00
55289;BME280;41154;45.394;5.734;2023-04-30T13:05:40;97002.41;;;12.25;100.00
55289;BME280;41154;45.394;5.734;2023-04-30T13:08:06;96997.56;;;11.84;100.00
55289;BME280;41154;45.394;5.734;2023-04-30T13:10:32;97003.91;;;12.00;100.00
55289;BME280;41154;45.394;5.734;2023-04-30T13:12:58;97009.81;;;12.02;100.00
55289;BME280;41154;45.394;5.734;2023-04-30T13:15:24;97006.59;;;12.00;100.00